createdAt,value
2022-10-05T00:02:16.611Z,1.48
2022-10-05T00:04:43.282Z,1.77
2022-10-05T00:07:15.323Z,1.60
2022-10-05T00:09:42.776Z,1.15
2022-10-05T00:12:14.690Z,1.40
2022-10-05T00:14:42.455Z,1.27
2022-10-05T00:17:16.828Z,1.48
2022-10-05T00:19:44.267Z,1.42
2022-10-05T00:22:16.291Z,1.65
2022-10-05T00:24:44.449Z,1.52
2022-10-05T00:27:28.317Z,1.48
2022-10-05T00:30:00.052Z,2.10
2022-10-05T00:34:54.073Z,1.90
2022-10-05T00:37:21.041Z,1.90
2022-10-05T00:39:49.533Z,1.58
2022-10-05T00:42:28.254Z,1.60
2022-10-05T00:44:59.665Z,2.13
2022-10-05T00:48:14.453Z,1.45
2022-10-05T00:50:59.690Z,1.52
2022-10-05T00:53:29.835Z,1.45
2022-10-05T00:56:03.322Z,1.30
2022-10-05T00:58:47.749Z,1.45
2022-10-05T01:01:21.353Z,1.42
2022-10-05T01:03:57.734Z,1.60
2022-10-05T01:06:37.283Z,1.45
2022-10-05T01:09:19.239Z,1.50
2022-10-05T01:11:54.742Z,1.50
2022-10-05T01:17:20.398Z,1.42
2022-10-05T01:20:11.756Z,1.45
2022-10-05T01:22:41.355Z,1.73
2022-10-05T01:25:26.285Z,1.77
2022-10-05T01:28:14.139Z,1.52
2022-10-05T01:30:53.927Z,1.20
2022-10-05T01:33:28.261Z,1.10
2022-10-05T01:36:15.154Z,1.02
2022-10-05T01:39:02.817Z,1.13
2022-10-05T01:41:32.642Z,1.20
2022-10-05T01:44:17.935Z,1.67
2022-10-05T01:46:53.672Z,0.90
2022-10-05T01:49:41.469Z,1.25
2022-10-05T01:52:35.789Z,1.35
2022-10-05T01:55:11.541Z,1.35
2022-10-05T01:57:59.708Z,1.50
2022-10-05T02:00:28.864Z,1.38
2022-10-05T02:03:07.950Z,1.35
2022-10-05T02:05:56.101Z,1.15
2022-10-05T02:08:37.947Z,1.23
2022-10-05T02:11:11.095Z,1.20
2022-10-05T02:13:46.067Z,1.13
2022-10-05T02:16:24.741Z,1.10
2022-10-05T02:19:14.688Z,1.10
2022-10-05T02:24:21.595Z,0.68
2022-10-05T02:26:50.937Z,0.77
2022-10-05T02:29:22.295Z,1.23
2022-10-05T02:32:00.457Z,0.95
2022-10-05T02:34:32.020Z,1.00
2022-10-05T02:37:13.921Z,0.82
2022-10-05T02:39:46.966Z,1.15
2022-10-05T02:42:26.047Z,1.00
2022-10-05T02:45:01.665Z,1.08
2022-10-05T02:47:55.370Z,0.80
2022-10-05T02:50:51.194Z,1.05
2022-10-05T02:53:44.027Z,0.90
2022-10-05T02:56:18.644Z,0.80
2022-10-05T02:59:10.206Z,1.08
2022-10-05T03:01:55.241Z,0.95
2022-10-05T03:05:00.132Z,0.90
2022-10-05T03:07:38.098Z,0.90
2022-10-05T03:10:20.791Z,0.98
2022-10-05T03:13:17.181Z,0.82
2022-10-05T03:15:43.851Z,0.70
2022-10-05T03:18:28.633Z,0.70
2022-10-05T03:21:00.444Z,0.80
2022-10-05T03:23:36.688Z,0.77
2022-10-05T03:26:29.739Z,0.80
2022-10-05T03:29:23.704Z,0.85
2022-10-05T03:32:09.083Z,0.57
2022-10-05T03:34:46.448Z,0.50
2022-10-05T03:37:50.068Z,0.63
2022-10-05T03:40:36.465Z,0.82
2022-10-05T03:43:17.106Z,0.77
2022-10-05T03:46:07.655Z,1.30
2022-10-05T03:48:58.007Z,1.00
2022-10-05T03:51:31.338Z,0.73
2022-10-05T03:54:17.450Z,0.65
2022-10-05T03:56:57.373Z,0.63
2022-10-05T03:59:37.996Z,0.98
2022-10-05T04:02:20.933Z,0.80
2022-10-05T04:04:54.649Z,0.95
2022-10-05T04:08:10.642Z,1.00
2022-10-05T04:10:45.360Z,0.60
2022-10-05T04:13:33.738Z,0.80
2022-10-05T04:16:08.802Z,0.90
2022-10-05T04:18:58.110Z,0.77
2022-10-05T04:22:03.525Z,0.82
2022-10-05T04:25:08.014Z,1.08
2022-10-05T04:27:40.107Z,0.98
2022-10-05T04:30:13.902Z,0.90
2022-10-05T04:32:57.335Z,1.00
2022-10-05T04:35:55.187Z,0.80
2022-10-05T04:38:39.009Z,0.70
2022-10-05T04:41:36.073Z,1.00
2022-10-05T04:44:18.293Z,0.80
2022-10-05T04:47:10.928Z,0.65
2022-10-05T04:49:47.179Z,1.33
2022-10-05T04:52:16.537Z,0.82
2022-10-05T04:55:10.601Z,0.90
2022-10-05T04:58:08.392Z,1.38
2022-10-05T05:01:03.584Z,1.17
2022-10-05T05:03:47.768Z,1.00
2022-10-05T05:06:41.997Z,0.85
2022-10-05T05:09:26.553Z,0.90
2022-10-05T05:12:27.414Z,1.08
2022-10-05T05:15:11.205Z,1.13
2022-10-05T05:17:40.643Z,1.33
2022-10-05T05:20:20.969Z,2.45
2022-10-05T05:23:07.229Z,1.20
2022-10-05T05:25:50.388Z,0.90
2022-10-05T05:28:45.374Z,0.95
2022-10-05T05:31:38.322Z,1.15
2022-10-05T05:34:33.595Z,1.00
2022-10-05T05:37:15.437Z,0.90
2022-10-05T05:39:59.362Z,0.90
2022-10-05T05:42:55.251Z,0.90
2022-10-05T05:45:40.071Z,0.80
2022-10-05T05:48:20.683Z,0.75
2022-10-05T05:50:47.380Z,0.98
2022-10-05T05:53:24.032Z,1.40
2022-10-05T05:56:00.593Z,2.60
2022-10-05T05:58:37.956Z,1.23
2022-10-05T06:01:33.179Z,0.80
2022-10-05T06:04:10.923Z,0.68
2022-10-05T06:06:42.519Z,1.02
2022-10-05T06:09:22.529Z,0.88
2022-10-05T06:12:09.263Z,1.05
2022-10-05T06:14:50.645Z,1.08
2022-10-05T06:17:58.856Z,2.17
2022-10-05T06:20:36.692Z,2.70
2022-10-05T06:23:12.363Z,2.38
2022-10-05T06:26:05.986Z,2.00
2022-10-05T06:28:36.732Z,1.80
2022-10-05T06:31:29.742Z,1.05
2022-10-05T06:34:24.388Z,0.98
2022-10-05T06:37:00.026Z,0.90
2022-10-05T06:39:30.814Z,0.90
2022-10-05T06:42:32.189Z,0.80
2022-10-05T06:45:21.694Z,0.80
2022-10-05T06:48:25.478Z,0.70
2022-10-05T06:51:25.428Z,0.80
2022-10-05T06:54:32.228Z,0.98
2022-10-05T06:57:14.163Z,1.00
2022-10-05T07:02:48.353Z,0.70
2022-10-05T07:05:28.261Z,0.90
2022-10-05T07:08:01.768Z,0.60
2022-10-05T07:10:47.961Z,0.70
2022-10-05T07:13:34.365Z,0.70
2022-10-05T07:16:18.228Z,0.70
2022-10-05T07:18:45.377Z,0.85
2022-10-05T07:21:32.753Z,0.45
2022-10-05T07:24:38.929Z,0.47
2022-10-05T07:27:05.484Z,0.70
2022-10-05T07:29:58.960Z,0.68
2022-10-05T07:32:40.225Z,0.80
2022-10-05T07:35:44.027Z,0.57
2022-10-05T07:38:18.742Z,0.88
2022-10-05T07:40:54.601Z,0.70
2022-10-05T07:44:01.461Z,0.63
2022-10-05T07:46:30.634Z,0.70
2022-10-05T07:49:03.729Z,0.70
2022-10-05T07:51:45.358Z,0.90
2022-10-05T07:54:57.297Z,0.88
2022-10-05T07:57:52.110Z,0.77
2022-10-05T08:00:24.738Z,0.50
2022-10-05T08:03:07.030Z,0.57
2022-10-05T08:05:38.255Z,1.00
2022-10-05T08:08:20.601Z,0.77
2022-10-05T08:11:02.053Z,0.50
2022-10-05T08:13:45.794Z,0.70
2022-10-05T08:16:12.658Z,0.60
2022-10-05T08:18:54.364Z,0.70
2022-10-05T08:23:55.226Z,0.50
2022-10-05T08:26:32.835Z,0.50
2022-10-05T08:29:03.507Z,0.30
2022-10-05T08:31:35.829Z,0.50
2022-10-05T08:34:27.182Z,0.28
2022-10-05T08:37:35.880Z,0.50
2022-10-05T08:40:14.351Z,0.40
2022-10-05T08:42:56.790Z,0.50
2022-10-05T08:45:47.493Z,0.32
2022-10-05T08:48:14.108Z,0.47
2022-10-05T08:50:55.701Z,0.52
2022-10-05T08:53:43.508Z,0.50
2022-10-05T08:56:28.676Z,0.75
2022-10-05T08:59:21.864Z,0.35
2022-10-05T09:01:57.413Z,1.10
2022-10-05T09:04:41.142Z,0.60
2022-10-05T09:07:19.996Z,0.60
2022-10-05T09:10:23.868Z,0.52
2022-10-05T09:12:53.365Z,0.30
2022-10-05T09:15:42.430Z,0.63
2022-10-05T09:18:13.218Z,0.40
2022-10-05T09:21:04.301Z,0.50
2022-10-05T09:23:42.853Z,0.40
2022-10-05T09:26:28.110Z,0.60
2022-10-05T09:29:06.918Z,0.40
2022-10-05T09:31:36.333Z,0.40
2022-10-05T09:34:14.950Z,0.50
2022-10-05T09:37:12.275Z,0.50
2022-10-05T09:39:47.857Z,0.30
2022-10-05T09:42:35.029Z,0.40
2022-10-05T09:45:35.790Z,0.20
2022-10-05T09:48:43.953Z,0.47
2022-10-05T09:51:29.174Z,0.40
2022-10-05T09:53:58.457Z,0.38
2022-10-05T09:56:53.110Z,0.38
2022-10-05T09:59:35.126Z,0.52
2022-10-05T10:02:27.494Z,0.30
2022-10-05T10:05:05.184Z,0.38
2022-10-05T10:07:52.101Z,0.38
2022-10-05T10:10:31.544Z,0.30
2022-10-05T10:13:35.678Z,0.40
2022-10-05T10:16:09.551Z,0.30
2022-10-05T10:18:56.296Z,0.30
2022-10-05T10:21:47.220Z,0.28
2022-10-05T10:24:22.981Z,0.40
2022-10-05T10:27:04.756Z,0.38
2022-10-05T10:29:56.301Z,0.20
2022-10-05T10:32:51.281Z,0.40
2022-10-05T10:36:13.742Z,0.45
2022-10-05T10:38:54.310Z,0.30
2022-10-05T10:41:38.891Z,0.50
2022-10-05T10:44:14.574Z,0.30
2022-10-05T10:46:50.468Z,0.30
2022-10-05T10:49:41.136Z,0.30
2022-10-05T10:52:10.620Z,0.40
2022-10-05T10:55:25.513Z,0.40
2022-10-05T10:58:15.903Z,0.47
2022-10-05T11:03:37.234Z,0.38
2022-10-05T11:06:18.006Z,0.50
2022-10-05T11:09:08.201Z,0.40
2022-10-05T11:12:07.055Z,0.73
2022-10-05T11:15:05.913Z,0.40
2022-10-05T11:17:47.427Z,0.32
2022-10-05T11:20:23.100Z,0.35
2022-10-05T11:23:11.093Z,0.30
2022-10-05T11:26:25.057Z,0.20
2022-10-05T11:29:19.539Z,0.20
2022-10-05T11:32:07.408Z,0.40
2022-10-05T11:34:43.232Z,0.30
2022-10-05T11:37:12.755Z,0.30
2022-10-05T11:39:48.418Z,0.40
2022-10-05T11:42:30.328Z,0.30
2022-10-05T11:45:21.724Z,0.30
2022-10-05T11:48:07.359Z,0.38
2022-10-05T11:51:19.058Z,0.30
2022-10-05T11:53:57.721Z,0.30
2022-10-05T11:56:33.829Z,0.30
2022-10-05T11:59:18.963Z,0.32
2022-10-05T12:02:04.247Z,0.43
2022-10-05T12:04:58.304Z,0.52
2022-10-05T12:07:42.886Z,0.50
2022-10-05T12:10:20.149Z,0.30
2022-10-05T12:13:07.219Z,0.30
2022-10-05T12:15:40.782Z,0.50
2022-10-05T12:18:16.570Z,0.30
2022-10-05T12:21:06.709Z,0.32
2022-10-05T12:23:51.436Z,0.30
2022-10-05T12:27:02.804Z,0.30
2022-10-05T12:29:44.093Z,0.30
2022-10-05T12:32:20.984Z,0.30
2022-10-05T12:35:03.267Z,0.25
2022-10-05T12:37:53.177Z,0.28
2022-10-05T12:40:19.708Z,0.40
2022-10-05T12:43:24.717Z,0.32
2022-10-05T12:46:21.866Z,0.22
2022-10-05T12:49:06.786Z,0.30
2022-10-05T12:51:50.043Z,0.20
2022-10-05T12:54:42.247Z,0.30
2022-10-05T12:57:27.048Z,0.28
2022-10-05T13:00:21.882Z,0.30
2022-10-05T13:02:54.652Z,0.38
2022-10-05T13:05:39.988Z,0.30
2022-10-05T13:08:32.487Z,0.30
2022-10-05T13:11:14.082Z,0.35
2022-10-05T13:13:53.053Z,0.40
2022-10-05T13:16:36.186Z,0.17
2022-10-05T13:19:17.002Z,0.20
2022-10-05T13:21:49.050Z,0.30
2022-10-05T13:24:18.419Z,0.30
2022-10-05T13:26:52.344Z,0.40
2022-10-05T13:29:33.098Z,0.38
2022-10-05T13:32:22.607Z,0.20
2022-10-05T13:34:52.463Z,0.40
2022-10-05T13:37:37.763Z,0.40
2022-10-05T13:40:17.073Z,0.15
2022-10-05T13:42:46.003Z,0.10
2022-10-05T13:45:25.068Z,0.20
2022-10-05T13:48:00.319Z,0.25
2022-10-05T13:50:33.464Z,0.20
2022-10-05T13:53:03.142Z,0.20
2022-10-05T13:55:29.826Z,0.10
2022-10-05T13:58:11.593Z,0.30
2022-10-05T14:00:50.548Z,0.13
2022-10-05T14:03:37.827Z,0.30
2022-10-05T14:06:29.852Z,0.90
2022-10-05T14:08:59.986Z,0.73
2022-10-05T14:11:35.445Z,1.00
2022-10-05T14:14:46.342Z,1.38
2022-10-05T14:17:42.525Z,0.30
2022-10-05T14:20:21.234Z,0.22
2022-10-05T14:23:03.260Z,0.30
2022-10-05T14:25:31.091Z,0.17
2022-10-05T14:28:01.767Z,0.50
2022-10-05T14:30:31.044Z,0.80
2022-10-05T14:33:03.549Z,0.20
2022-10-05T14:35:44.354Z,0.30
2022-10-05T14:38:55.365Z,0.15
2022-10-05T14:41:27.694Z,0.20
2022-10-05T14:43:59.668Z,0.20
2022-10-05T14:46:33.907Z,0.20
2022-10-05T14:49:26.957Z,0.20
2022-10-05T14:51:55.479Z,0.20
2022-10-05T14:54:46.898Z,0.57
2022-10-05T14:57:58.219Z,0.15
2022-10-05T15:00:25.987Z,0.20
2022-10-05T15:03:04.436Z,0.20
2022-10-05T15:05:44.791Z,0.10
2022-10-05T15:08:21.533Z,0.20
2022-10-05T15:11:03.038Z,0.22
2022-10-05T15:13:34.244Z,0.10
2022-10-05T15:16:17.283Z,1.20
2022-10-05T15:18:54.621Z,0.10
2022-10-05T15:21:55.150Z,0.10
2022-10-05T15:24:26.388Z,0.20
2022-10-05T15:26:59.203Z,0.10
2022-10-05T15:29:36.118Z,0.20
2022-10-05T15:32:20.687Z,0.20
2022-10-05T15:35:06.004Z,0.20
2022-10-05T15:37:47.660Z,0.10
2022-10-05T15:40:34.667Z,0.20
2022-10-05T15:43:09.625Z,0.30
2022-10-05T15:45:41.863Z,0.73
2022-10-05T15:48:29.091Z,0.77
2022-10-05T15:51:13.891Z,0.45
2022-10-05T15:53:52.821Z,0.40
2022-10-05T15:56:35.147Z,0.50
2022-10-05T16:01:33.611Z,0.57
2022-10-05T16:04:38.630Z,0.40
2022-10-05T16:07:33.931Z,0.60
2022-10-05T16:10:13.575Z,0.60
2022-10-05T16:13:22.329Z,0.30
2022-10-05T16:15:53.224Z,0.50
2022-10-05T16:18:45.827Z,0.30
2022-10-05T16:21:17.795Z,0.50
2022-10-05T16:23:47.378Z,0.40
2022-10-05T16:26:17.648Z,0.32
2022-10-05T16:29:17.528Z,0.40
2022-10-05T16:32:08.207Z,0.30
2022-10-05T16:34:37.726Z,0.45
2022-10-05T16:37:24.265Z,0.10
2022-10-05T16:40:16.217Z,0.20
2022-10-05T16:43:19.218Z,0.73
2022-10-05T16:46:11.576Z,0.35
2022-10-05T16:48:49.654Z,0.40
2022-10-05T16:51:47.491Z,0.35
2022-10-05T16:54:22.429Z,0.28
2022-10-05T16:56:54.100Z,0.38
2022-10-05T16:59:45.342Z,0.52
2022-10-05T17:02:27.033Z,0.50
2022-10-05T17:05:02.611Z,0.60
2022-10-05T17:07:41.443Z,6.90
2022-10-05T17:10:40.148Z,1.40
2022-10-05T17:13:28.537Z,0.90
2022-10-05T17:16:25.953Z,0.93
2022-10-05T17:19:04.702Z,0.70
2022-10-05T17:22:03.184Z,0.60
2022-10-05T17:24:41.687Z,0.80
2022-10-05T17:27:25.459Z,0.70
2022-10-05T17:30:16.722Z,0.80
2022-10-05T17:33:04.655Z,0.75
2022-10-05T17:35:52.388Z,0.70
2022-10-05T17:38:30.830Z,0.90
2022-10-05T17:41:00.130Z,1.70
2022-10-05T17:43:28.819Z,1.27
2022-10-05T17:46:06.822Z,1.10
2022-10-05T17:48:42.746Z,0.77
2022-10-05T17:51:33.793Z,1.00
2022-10-05T17:54:48.139Z,0.85
2022-10-05T17:57:20.267Z,0.88
2022-10-05T17:59:58.389Z,1.20
2022-10-05T18:02:40.413Z,0.98
2022-10-05T18:05:12.454Z,0.90
2022-10-05T18:08:21.816Z,1.10
2022-10-05T18:11:11.700Z,1.83
2022-10-05T18:13:50.264Z,1.10
2022-10-05T18:16:54.628Z,0.70
2022-10-05T18:19:22.550Z,1.00
2022-10-05T18:22:03.321Z,1.45
2022-10-05T18:24:42.110Z,1.53
2022-10-05T18:27:36.408Z,0.90
2022-10-05T18:30:19.327Z,1.00
2022-10-05T18:33:20.395Z,0.90
2022-10-05T18:35:56.174Z,0.95
2022-10-05T18:38:38.092Z,1.13
2022-10-05T18:41:32.956Z,1.13
2022-10-05T18:44:18.536Z,1.00
2022-10-05T18:47:00.726Z,0.80
2022-10-05T18:49:36.222Z,1.00
2022-10-05T18:52:13.329Z,1.10
2022-10-05T18:55:17.296Z,1.23
2022-10-05T18:58:02.238Z,1.50
2022-10-05T19:01:00.854Z,1.10
2022-10-05T19:03:39.588Z,1.25
2022-10-05T19:06:51.262Z,1.33
2022-10-05T19:09:42.337Z,1.48
2022-10-05T19:12:46.117Z,2.33
2022-10-05T19:15:22.483Z,1.85
2022-10-05T19:18:14.007Z,1.42
2022-10-05T19:20:59.365Z,1.30
2022-10-05T19:23:41.282Z,1.73
2022-10-05T19:26:26.372Z,1.13
2022-10-05T19:29:09.733Z,1.13
2022-10-05T19:31:55.107Z,1.50
2022-10-05T19:34:45.131Z,1.05
2022-10-05T19:37:20.864Z,0.95
2022-10-05T19:39:54.250Z,1.25
2022-10-05T19:42:36.585Z,1.70
2022-10-05T19:45:16.026Z,1.60
2022-10-05T19:47:48.668Z,1.10
2022-10-05T19:50:19.860Z,1.05
2022-10-05T19:52:50.916Z,1.02
2022-10-05T19:55:20.481Z,1.20
2022-10-05T19:57:49.686Z,1.05
2022-10-05T20:00:37.699Z,1.30
2022-10-05T20:03:12.695Z,1.48
2022-10-05T20:05:40.175Z,1.25
2022-10-05T20:08:07.612Z,1.60
2022-10-05T20:10:34.422Z,1.58
2022-10-05T20:13:05.269Z,1.60
2022-10-05T20:15:52.948Z,1.65
2022-10-05T20:19:03.327Z,1.38
2022-10-05T20:21:49.086Z,1.20
2022-10-05T20:24:26.085Z,1.70
2022-10-05T20:27:07.110Z,1.30
2022-10-05T20:29:44.766Z,1.38
2022-10-05T20:32:14.150Z,1.27
2022-10-05T20:34:46.197Z,1.23
2022-10-05T20:37:15.309Z,1.58
2022-10-05T20:39:42.388Z,1.00
2022-10-05T20:42:10.106Z,0.88
2022-10-05T20:44:37.698Z,1.00
2022-10-05T20:47:07.320Z,0.70
2022-10-05T20:49:36.185Z,0.63
2022-10-05T20:52:06.733Z,0.70
2022-10-05T20:54:33.354Z,0.93
2022-10-05T20:57:00.866Z,1.00
2022-10-05T20:59:27.675Z,1.20
2022-10-05T21:01:54.775Z,0.90
2022-10-05T21:04:23.459Z,1.10
2022-10-05T21:06:50.757Z,1.10
2022-10-05T21:09:19.446Z,1.13
2022-10-05T21:11:48.817Z,1.10
2022-10-05T21:14:16.472Z,1.27
2022-10-05T21:16:43.466Z,1.10
2022-10-05T21:19:14.947Z,1.02
2022-10-05T21:21:47.348Z,1.35
2022-10-05T21:24:15.072Z,1.13
2022-10-05T21:26:42.151Z,0.88
2022-10-05T21:29:12.555Z,0.90
2022-10-05T21:31:40.488Z,0.85
2022-10-05T21:34:07.672Z,1.10
2022-10-05T21:36:34.946Z,0.80
2022-10-05T21:39:01.648Z,1.10
2022-10-05T21:41:28.242Z,1.00
2022-10-05T21:43:54.887Z,0.98
2022-10-05T21:46:26.300Z,1.00
2022-10-05T21:48:54.275Z,1.00
2022-10-05T21:51:24.060Z,0.90
2022-10-05T21:53:55.611Z,0.80
2022-10-05T21:58:52.195Z,0.82
2022-10-05T22:01:22.359Z,0.95
2022-10-05T22:03:49.335Z,1.15
2022-10-05T22:06:15.910Z,0.88
2022-10-05T22:08:42.562Z,1.10
2022-10-05T22:11:14.970Z,0.90
2022-10-05T22:13:52.688Z,1.27
2022-10-05T22:16:23.600Z,0.90
2022-10-05T22:18:50.635Z,1.45
2022-10-05T22:21:17.387Z,0.70
2022-10-05T22:23:45.908Z,1.30
2022-10-05T22:26:16.647Z,1.35
2022-10-05T22:28:44.372Z,0.98
2022-10-05T22:31:12.775Z,1.20
2022-10-05T22:33:40.854Z,0.98
2022-10-05T22:36:08.668Z,1.08
2022-10-05T22:38:35.312Z,0.90
2022-10-05T22:41:01.902Z,0.95
2022-10-05T22:43:28.945Z,0.85
2022-10-05T22:45:56.154Z,1.05
2022-10-05T22:48:22.960Z,0.95
2022-10-05T22:50:49.727Z,1.00
2022-10-05T22:53:16.369Z,1.08
2022-10-05T22:55:42.997Z,1.15
2022-10-05T22:58:09.635Z,1.10
2022-10-05T23:00:56.878Z,1.10
2022-10-05T23:03:22.796Z,0.98
2022-10-05T23:05:56.307Z,1.15
2022-10-05T23:08:22.891Z,0.90
2022-10-05T23:10:49.416Z,1.00
2022-10-05T23:13:15.954Z,0.85
2022-10-05T23:15:42.516Z,1.10
2022-10-05T23:18:09.039Z,1.40
2022-10-05T23:20:35.616Z,0.93
2022-10-05T23:23:02.145Z,0.93
2022-10-05T23:25:28.685Z,1.05
2022-10-05T23:27:55.267Z,0.98
2022-10-05T23:30:21.873Z,1.00
2022-10-05T23:32:48.396Z,1.15
2022-10-05T23:35:15.063Z,1.10
2022-10-05T23:37:43.956Z,0.88
2022-10-05T23:40:14.231Z,0.80
2022-10-05T23:42:41.832Z,1.20
2022-10-05T23:45:10.633Z,0.95
2022-10-05T23:47:37.839Z,1.00
2022-10-05T23:50:07.010Z,0.77
2022-10-05T23:52:35.652Z,0.98
2022-10-05T23:55:04.013Z,0.90
2022-10-05T23:57:30.950Z,1.13
2022-10-05T23:59:57.613Z,0.88
